Terminal Aerodrome Forecast
Issued by NWS Sterling, VA

Home | Current Version | Previous Version | Text Only | Print | Product List | Glossary On
Versions: 1 2 3 4 5 6 7 8 9 10 11 12 13 14 15 16 17 18 19 20 21 22 23 24
757
FTUS41 KLWX 010854 AAA
TAFBWI
TAF AMD
KBWI 010854Z 0109/0212 14006KT P6SM -RA OVC035
     FM011000 14006KT P6SM -RA OVC020
     FM011200 13007KT P6SM -RA OVC008
     FM011700 14007KT P6SM OVC008
     FM012100 13005KT P6SM -SHRA OVC008
     FM020300 08005KT 3SM -SHRA BR OVC003
     FM020900 07004KT 3SM BR OVC008
     FM021100 17005KT 3SM BR BKN008=

USA.gov is the U.S. government's official web portal to all federal, state and local government web resources and services.